createdAt,value
2019-04-01T00:02:09.312Z,16.87
2019-04-01T00:04:41.490Z,15.85
2019-04-01T00:07:09.934Z,17.02
2019-04-01T00:09:38.388Z,18.45
2019-04-01T00:12:06.829Z,18.17
2019-04-01T00:14:35.290Z,16.82
2019-04-01T00:17:03.728Z,17.48
2019-04-01T00:19:32.441Z,17.45
2019-04-01T00:22:01.142Z,19.60
2019-04-01T00:24:29.872Z,19.00
2019-04-01T00:26:58.581Z,20.90
2019-04-01T00:29:27.303Z,20.20
2019-04-01T00:31:56.032Z,17.80
2019-04-01T00:34:28.156Z,19.00
2019-04-01T00:36:56.890Z,19.73
2019-04-01T00:39:25.338Z,20.57
2019-04-01T00:41:58.170Z,18.85
2019-04-01T00:44:26.614Z,21.12
2019-04-01T00:46:55.074Z,18.98
2019-04-01T00:49:25.706Z,20.23
2019-04-01T00:51:54.213Z,22.22
2019-04-01T00:54:22.913Z,21.95
2019-04-01T00:56:51.625Z,21.50
2019-04-01T00:59:20.067Z,23.40
2019-04-01T01:01:48.512Z,23.15
2019-04-01T01:04:17.238Z,22.35
2019-04-01T01:06:45.684Z,26.75
2019-04-01T01:09:14.149Z,23.25
2019-04-01T01:11:42.598Z,23.73
2019-04-01T01:14:11.308Z,25.17
2019-04-01T01:16:51.901Z,25.88
2019-04-01T01:19:21.127Z,28.62
2019-04-01T01:21:49.827Z,26.45
2019-04-01T01:24:18.314Z,27.52
2019-04-01T01:26:46.804Z,28.10
2019-04-01T01:29:15.270Z,29.67
2019-04-01T01:31:43.973Z,29.67
2019-04-01T01:34:16.672Z,29.23
2019-04-01T01:36:45.122Z,32.30
2019-04-01T01:39:13.590Z,32.75
2019-04-01T01:41:42.043Z,33.45
2019-04-01T01:44:10.733Z,30.23
2019-04-01T01:46:39.459Z,34.10
2019-04-01T01:49:07.904Z,35.95
2019-04-01T01:51:36.404Z,33.40
2019-04-01T01:54:04.851Z,38.00
2019-04-01T01:56:33.584Z,37.45
2019-04-01T01:59:02.022Z,38.83
2019-04-01T02:01:30.754Z,40.80
2019-04-01T02:03:59.203Z,39.65
2019-04-01T02:06:30.337Z,39.08
2019-04-01T02:08:58.790Z,41.70
2019-04-01T02:11:27.271Z,42.75
2019-04-01T02:13:55.718Z,42.65
2019-04-01T02:16:24.158Z,42.35
2019-04-01T02:18:52.618Z,48.87
2019-04-01T02:21:21.063Z,48.75
2019-04-01T02:23:49.517Z,47.60
2019-04-01T02:26:17.962Z,50.98
2019-04-01T02:28:46.423Z,51.02
2019-04-01T02:31:16.267Z,49.88
2019-04-01T02:33:44.725Z,51.37
2019-04-01T02:36:16.496Z,54.33
2019-04-01T02:38:45.225Z,58.78
2019-04-01T02:41:13.685Z,54.33
2019-04-01T02:43:42.302Z,55.55
2019-04-01T02:46:11.035Z,57.23
2019-04-01T02:48:39.728Z,61.75
2019-04-01T02:51:08.190Z,59.35
2019-04-01T02:53:36.630Z,60.10
2019-04-01T02:56:05.424Z,62.17
2019-04-01T02:58:34.190Z,62.33
2019-04-01T03:01:02.674Z,61.45
2019-04-01T03:03:31.455Z,62.27
2019-04-01T03:06:00.836Z,64.72
2019-04-01T03:08:29.287Z,62.00
2019-04-01T03:10:58.020Z,63.00
2019-04-01T03:13:26.571Z,63.65
2019-04-01T03:15:55.269Z,67.78
2019-04-01T03:18:24.114Z,72.25
2019-04-01T03:20:52.556Z,65.28
2019-04-01T03:23:21.277Z,64.62
2019-04-01T03:25:49.730Z,67.00
2019-04-01T03:28:18.207Z,66.30
2019-04-01T03:30:46.733Z,69.20
2019-04-01T03:33:15.542Z,71.35
2019-04-01T03:35:44.302Z,65.70
2019-04-01T03:38:13.023Z,66.65
2019-04-01T03:40:41.488Z,68.40
2019-04-01T03:43:09.931Z,70.72
2019-04-01T03:45:38.391Z,69.42
2019-04-01T03:48:06.835Z,70.47
2019-04-01T03:50:35.542Z,71.45
2019-04-01T03:53:04.347Z,71.45
2019-04-01T03:55:33.052Z,68.05
2019-04-01T03:58:01.832Z,73.80
2019-04-01T04:00:30.537Z,73.37
2019-04-01T04:02:58.988Z,72.03
2019-04-01T04:05:27.479Z,67.72
2019-04-01T04:07:56.165Z,80.95
2019-04-01T04:10:24.981Z,71.72
2019-04-01T04:12:53.410Z,75.62
2019-04-01T04:15:22.144Z,71.85
2019-04-01T04:17:50.662Z,76.70
2019-04-01T04:20:19.387Z,74.70
2019-04-01T04:22:47.835Z,72.03
2019-04-01T04:25:16.566Z,72.72
2019-04-01T04:27:45.263Z,72.50
2019-04-01T04:30:16.777Z,75.10
2019-04-01T04:32:45.243Z,69.67
2019-04-01T04:35:13.682Z,77.58
2019-04-01T04:37:42.463Z,74.53
2019-04-01T04:40:11.291Z,73.95
2019-04-01T04:42:40.019Z,79.12
2019-04-01T04:45:08.800Z,72.72
2019-04-01T04:47:37.531Z,75.87
2019-04-01T04:50:06.610Z,72.53
2019-04-01T04:52:35.072Z,72.12
2019-04-01T04:55:04.128Z,72.82
2019-04-01T04:57:32.928Z,77.12
2019-04-01T05:00:01.635Z,69.58
2019-04-01T05:02:30.165Z,77.00
2019-04-01T05:04:58.854Z,73.65
2019-04-01T05:07:27.300Z,73.75
2019-04-01T05:09:55.753Z,75.57
2019-04-01T05:12:24.193Z,75.20
2019-04-01T05:14:52.659Z,76.00
2019-04-01T05:17:21.347Z,74.45
2019-04-01T05:19:49.990Z,76.55
2019-04-01T05:22:21.809Z,70.78
2019-04-01T05:24:51.249Z,77.00
2019-04-01T05:27:22.756Z,73.70
2019-04-01T05:29:53.970Z,74.70
2019-04-01T05:32:22.751Z,73.72
2019-04-01T05:34:54.598Z,81.32
2019-04-01T05:37:23.053Z,80.12
2019-04-01T05:39:51.671Z,78.50
2019-04-01T05:42:20.193Z,81.45
2019-04-01T05:44:48.638Z,77.42
2019-04-01T05:47:18.495Z,79.30
2019-04-01T05:49:47.250Z,76.30
2019-04-01T05:52:16.015Z,74.65
2019-04-01T05:54:44.822Z,71.60
2019-04-01T05:57:14.250Z,75.95
2019-04-01T05:59:43.030Z,77.97
2019-04-01T06:02:11.665Z,76.72
2019-04-01T06:04:40.167Z,79.37
2019-04-01T06:07:11.553Z,71.80
2019-04-01T06:09:40.284Z,77.80
2019-04-01T06:12:08.758Z,77.45
2019-04-01T06:14:37.470Z,71.07
2019-04-01T06:17:05.914Z,80.20
2019-04-01T06:19:34.631Z,69.03
2019-04-01T06:22:03.139Z,72.08
2019-04-01T06:24:31.676Z,74.40
2019-04-01T06:27:00.383Z,70.85
2019-04-01T06:29:29.399Z,74.85
2019-04-01T06:31:58.298Z,77.78
2019-04-01T06:34:27.002Z,76.47
2019-04-01T06:36:55.470Z,79.10
2019-04-01T06:39:24.182Z,74.75
2019-04-01T06:41:52.782Z,75.17
2019-04-01T06:44:21.379Z,73.10
2019-04-01T06:46:49.891Z,72.62
2019-04-01T06:49:20.343Z,75.15
2019-04-01T06:51:48.532Z,72.97
2019-04-01T06:54:16.975Z,74.42
2019-04-01T06:56:45.414Z,68.12
2019-04-01T06:59:13.865Z,74.10
2019-04-01T07:01:42.394Z,71.97
2019-04-01T07:04:10.989Z,71.50
2019-04-01T07:06:39.429Z,77.67
2019-04-01T07:09:07.880Z,72.82
2019-04-01T07:11:36.358Z,70.52
2019-04-01T07:14:05.548Z,76.62
2019-04-01T07:16:33.990Z,71.42
2019-04-01T07:19:02.692Z,70.25
2019-04-01T07:21:31.266Z,69.82
2019-04-01T07:23:59.963Z,71.00
2019-04-01T07:26:28.417Z,73.62
2019-04-01T07:28:57.259Z,69.97
2019-04-01T07:31:25.726Z,70.32
2019-04-01T07:33:54.398Z,73.02
2019-04-01T07:36:23.196Z,67.92
2019-04-01T07:38:51.664Z,69.80
2019-04-01T07:41:20.374Z,70.57
2019-04-01T07:43:48.822Z,63.65
2019-04-01T07:46:17.291Z,67.80
2019-04-01T07:48:46.351Z,66.50
2019-04-01T07:51:15.229Z,66.97
2019-04-01T07:53:44.148Z,72.97
2019-04-01T07:56:12.586Z,61.75
2019-04-01T07:58:41.409Z,65.03
2019-04-01T08:01:09.849Z,72.22
2019-04-01T08:03:41.686Z,67.72
2019-04-01T08:06:08.940Z,63.70
2019-04-01T08:08:37.424Z,68.25
2019-04-01T08:11:06.116Z,65.22
2019-04-01T08:13:34.834Z,63.95
2019-04-01T08:16:03.281Z,65.15
2019-04-01T08:18:33.955Z,59.50
2019-04-01T08:21:02.579Z,64.25
2019-04-01T08:23:31.069Z,63.78
2019-04-01T08:25:59.541Z,61.73
2019-04-01T08:28:27.976Z,60.75
2019-04-01T08:30:56.472Z,61.35
2019-04-01T08:33:24.908Z,61.63
2019-04-01T08:35:53.396Z,63.40
2019-04-01T08:38:22.295Z,58.23
2019-04-01T08:40:50.745Z,63.25
2019-04-01T08:43:19.547Z,59.98
2019-04-01T08:45:48.013Z,56.85
2019-04-01T08:48:16.770Z,59.27
2019-04-01T08:50:45.313Z,60.03
2019-04-01T08:53:13.754Z,55.00
2019-04-01T08:55:42.455Z,55.95
2019-04-01T08:58:10.917Z,59.05
2019-04-01T09:00:40.099Z,55.10
2019-04-01T09:03:08.815Z,57.50
2019-04-01T09:05:37.258Z,57.55
2019-04-01T09:08:06.054Z,55.33
2019-04-01T09:10:35.804Z,54.98
2019-04-01T09:13:04.271Z,54.75
2019-04-01T09:15:32.778Z,58.30
2019-04-01T09:18:01.240Z,53.83
2019-04-01T09:20:29.937Z,52.67
2019-04-01T09:22:59.330Z,49.83
2019-04-01T09:25:28.306Z,51.90
2019-04-01T09:27:57.129Z,47.43
2019-04-01T09:30:25.590Z,48.00
2019-04-01T09:32:54.300Z,49.40
2019-04-01T09:35:22.766Z,46.55
2019-04-01T09:37:51.225Z,45.70
2019-04-01T09:40:19.689Z,46.13
2019-04-01T09:42:48.128Z,50.35
2019-04-01T09:45:17.005Z,49.88
2019-04-01T09:47:45.725Z,54.40
2019-04-01T09:50:14.622Z,51.92
2019-04-01T09:52:43.320Z,52.50
2019-04-01T09:58:40.501Z,51.00
2019-04-01T10:01:09.381Z,49.40
2019-04-01T10:03:37.834Z,44.75
2019-04-01T10:06:06.296Z,50.15
2019-04-01T10:08:42.148Z,44.73
2019-04-01T10:11:04.997Z,45.15
2019-04-01T10:13:33.459Z,45.80
2019-04-01T10:16:02.189Z,46.45
2019-04-01T10:18:30.894Z,47.70
2019-04-01T10:20:59.348Z,47.65
2019-04-01T10:23:27.814Z,48.78
2019-04-01T10:25:56.509Z,47.00
2019-04-01T10:28:24.974Z,45.75
2019-04-01T10:30:53.498Z,50.38
2019-04-01T10:33:21.975Z,48.85
2019-04-01T10:35:50.481Z,50.17
2019-04-01T10:38:19.007Z,47.17
2019-04-01T10:40:47.446Z,45.15
2019-04-01T10:43:16.187Z,46.53
2019-04-01T10:45:44.810Z,43.08
2019-04-01T10:48:13.557Z,41.30
2019-04-01T10:50:42.339Z,41.37
2019-04-01T10:53:10.907Z,42.25
2019-04-01T10:55:39.506Z,43.52
2019-04-01T10:58:08.376Z,46.23
2019-04-01T11:00:36.863Z,41.65
2019-04-01T11:03:06.173Z,45.90
2019-04-01T11:05:35.013Z,46.02
2019-04-01T11:08:03.850Z,44.53
2019-04-01T11:10:32.650Z,44.15
2019-04-01T11:13:01.354Z,43.52
2019-04-01T11:15:29.807Z,40.05
2019-04-01T11:17:58.263Z,46.13
2019-04-01T11:20:26.982Z,40.83
2019-04-01T11:22:55.708Z,42.20
2019-04-01T11:25:24.156Z,48.13
2019-04-01T11:27:52.624Z,41.92
2019-04-01T11:30:21.677Z,42.80
2019-04-01T11:32:50.218Z,45.65
2019-04-01T11:35:18.989Z,41.95
2019-04-01T11:37:47.511Z,41.02
2019-04-01T11:40:16.137Z,38.78
2019-04-01T11:42:44.999Z,41.98
2019-04-01T11:45:13.759Z,40.30
2019-04-01T11:47:42.385Z,40.17
2019-04-01T11:50:11.213Z,40.35
2019-04-01T11:52:39.723Z,41.73
2019-04-01T11:55:09.178Z,42.38
2019-04-01T11:57:38.079Z,37.03
2019-04-01T12:00:12.690Z,36.80
2019-04-01T12:02:41.305Z,35.60
2019-04-01T12:05:09.902Z,36.25
2019-04-01T12:07:38.342Z,40.63
2019-04-01T12:10:08.030Z,38.02
2019-04-01T12:12:36.551Z,38.55
2019-04-01T12:15:06.647Z,37.90
2019-04-01T12:17:35.094Z,39.45
2019-04-01T12:20:04.609Z,37.15
2019-04-01T12:22:33.310Z,35.55
2019-04-01T12:25:01.761Z,50.50
2019-04-01T12:27:30.217Z,41.83
2019-04-01T12:29:58.917Z,43.65
2019-04-01T12:32:27.382Z,46.48
2019-04-01T12:34:55.827Z,33.00
2019-04-01T12:37:24.561Z,39.55
2019-04-01T12:39:53.260Z,34.33
2019-04-01T12:42:21.725Z,48.35
2019-04-01T12:44:53.396Z,35.88
2019-04-01T12:47:21.825Z,38.73
2019-04-01T12:49:50.549Z,34.08
2019-04-01T12:52:19.258Z,33.18
2019-04-01T12:54:47.710Z,29.63
2019-04-01T12:57:18.786Z,33.48
2019-04-01T12:59:46.603Z,33.15
2019-04-01T13:02:18.123Z,29.18
2019-04-01T13:04:47.361Z,32.55
2019-04-01T13:07:15.935Z,32.88
2019-04-01T13:09:44.662Z,33.80
2019-04-01T13:12:13.105Z,30.02
2019-04-01T13:14:41.585Z,30.50
2019-04-01T13:17:10.031Z,33.00
2019-04-01T13:19:38.733Z,34.38
2019-04-01T13:22:09.048Z,33.08
2019-04-01T13:24:37.937Z,31.82
2019-04-01T13:27:09.122Z,30.88
2019-04-01T13:29:36.561Z,32.38
2019-04-01T13:32:05.361Z,33.45
2019-04-01T13:34:33.806Z,26.02
2019-04-01T13:37:02.262Z,34.23
2019-04-01T13:39:31.021Z,33.05
2019-04-01T13:41:59.747Z,30.00
2019-04-01T13:44:36.799Z,35.03
2019-04-01T13:46:58.662Z,26.52
2019-04-01T13:49:27.106Z,31.48
2019-04-01T13:51:55.805Z,28.00
2019-04-01T13:54:24.269Z,27.27
2019-04-01T13:56:52.733Z,29.90
2019-04-01T13:59:22.047Z,26.93
2019-04-01T14:01:50.489Z,28.47
2019-04-01T14:04:18.966Z,25.45
2019-04-01T14:06:47.411Z,31.20
2019-04-01T14:09:16.127Z,25.70
2019-04-01T14:11:44.577Z,29.67
2019-04-01T14:14:13.035Z,25.85
2019-04-01T14:16:41.776Z,25.35
2019-04-01T14:19:10.583Z,22.77
2019-04-01T14:21:39.027Z,24.75
2019-04-01T14:24:07.479Z,27.10
2019-04-01T14:26:36.193Z,29.32
2019-04-01T14:29:04.897Z,27.22
2019-04-01T14:31:33.456Z,26.33
2019-04-01T14:34:01.969Z,27.60
2019-04-01T14:36:30.433Z,26.33
2019-04-01T14:38:59.137Z,26.75
2019-04-01T14:41:27.859Z,27.58
2019-04-01T14:43:56.315Z,26.25
2019-04-01T14:46:25.109Z,28.12
2019-04-01T14:48:53.558Z,28.40
2019-04-01T14:51:22.288Z,26.50
2019-04-01T14:53:50.745Z,28.67
2019-04-01T14:56:19.456Z,26.35
2019-04-01T14:58:48.156Z,29.82
2019-04-01T15:01:16.680Z,30.50
2019-04-01T15:03:45.145Z,25.77
2019-04-01T15:06:13.858Z,27.37
2019-04-01T15:08:42.313Z,25.70
2019-04-01T15:11:12.237Z,30.70
2019-04-01T15:13:40.861Z,23.83
2019-04-01T15:16:09.300Z,29.15
2019-04-01T15:18:37.764Z,30.23
2019-04-01T15:21:06.282Z,33.35
2019-04-01T15:23:34.770Z,28.65
2019-04-01T15:26:03.742Z,29.60
2019-04-01T15:28:32.753Z,30.62
2019-04-01T15:31:01.485Z,33.85
2019-04-01T15:33:29.916Z,30.43
2019-04-01T15:35:58.633Z,32.90
2019-04-01T15:38:27.090Z,30.32
2019-04-01T15:40:58.198Z,29.82
2019-04-01T15:43:26.048Z,28.47
2019-04-01T15:45:54.779Z,27.22
2019-04-01T15:48:23.474Z,32.50
2019-04-01T15:50:52.199Z,31.55
2019-04-01T15:53:23.503Z,31.12
2019-04-01T15:55:50.907Z,26.37
2019-04-01T15:58:19.620Z,32.28
2019-04-01T16:00:48.071Z,33.25
2019-04-01T16:03:16.605Z,27.80
2019-04-01T16:05:45.040Z,29.32
2019-04-01T16:08:13.762Z,29.57
2019-04-01T16:10:42.210Z,29.67
2019-04-01T16:13:10.687Z,32.45
2019-04-01T16:15:39.422Z,26.75
2019-04-01T16:18:08.136Z,32.63
2019-04-01T16:20:36.858Z,38.42
2019-04-01T16:23:05.321Z,32.33
2019-04-01T16:25:37.324Z,30.62
2019-04-01T16:28:04.619Z,31.30
2019-04-01T16:30:33.325Z,34.20
2019-04-01T16:33:02.041Z,33.25
2019-04-01T16:35:30.509Z,34.20
2019-04-01T16:37:59.507Z,31.05
2019-04-01T16:40:28.091Z,32.33
2019-04-01T16:42:56.525Z,35.10
2019-04-01T16:45:25.239Z,35.13
2019-04-01T16:47:53.691Z,34.05
2019-04-01T16:50:22.162Z,32.90
2019-04-01T16:52:50.656Z,34.58
2019-04-01T16:55:19.306Z,38.38
2019-04-01T16:57:48.005Z,34.60
2019-04-01T17:00:17.185Z,32.20
2019-04-01T17:02:45.905Z,33.10
2019-04-01T17:05:15.291Z,36.23
2019-04-01T17:07:43.997Z,36.13
2019-04-01T17:10:20.710Z,36.15
2019-04-01T17:12:49.250Z,38.50
2019-04-01T17:15:17.700Z,38.00
2019-04-01T17:17:46.414Z,37.48
2019-04-01T17:20:14.931Z,36.53
2019-04-01T17:22:43.396Z,39.50
2019-04-01T17:25:11.974Z,36.53
2019-04-01T17:27:40.515Z,40.38
2019-04-01T17:30:09.889Z,38.05
2019-04-01T17:32:38.445Z,38.53
2019-04-01T17:35:07.388Z,37.28
2019-04-01T17:37:36.113Z,37.20
2019-04-01T17:40:07.689Z,36.95
2019-04-01T17:42:39.102Z,38.45
2019-04-01T17:45:24.703Z,35.17
2019-04-01T17:47:53.229Z,34.90
2019-04-01T17:50:21.678Z,37.60
2019-04-01T17:52:50.392Z,39.53
2019-04-01T17:55:19.101Z,42.50
2019-04-01T17:57:47.561Z,37.88
2019-04-01T18:00:24.510Z,38.58
2019-04-01T18:02:52.953Z,41.37
2019-04-01T18:05:22.115Z,40.23
2019-04-01T18:07:50.563Z,46.33
2019-04-01T18:10:19.483Z,36.58
2019-04-01T18:12:47.916Z,40.55
2019-04-01T18:15:16.715Z,39.33
2019-04-01T18:17:45.176Z,39.75
2019-04-01T18:20:14.011Z,40.73
2019-04-01T18:22:42.479Z,38.13
2019-04-01T18:25:11.394Z,38.28
2019-04-01T18:27:40.142Z,38.55
2019-04-01T18:30:09.693Z,39.65
2019-04-01T18:32:38.278Z,40.43
2019-04-01T18:35:06.973Z,43.00
2019-04-01T18:37:35.469Z,37.10
2019-04-01T18:40:05.585Z,40.20
2019-04-01T18:42:34.336Z,39.30
2019-04-01T18:45:03.241Z,38.35
2019-04-01T18:47:31.989Z,43.08
2019-04-01T18:50:00.705Z,41.58
2019-04-01T18:52:29.405Z,37.60
2019-04-01T18:54:58.129Z,39.75
2019-04-01T18:57:27.373Z,40.43
2019-04-01T18:59:56.205Z,40.40
2019-04-01T19:02:24.650Z,41.83
2019-04-01T19:04:53.375Z,39.55
2019-04-01T19:07:22.143Z,45.88
2019-04-01T19:09:50.806Z,40.03
2019-04-01T19:12:19.329Z,38.48
2019-04-01T19:14:47.761Z,40.38
2019-04-01T19:17:16.487Z,41.30
2019-04-01T19:19:47.158Z,44.08
2019-04-01T19:22:15.145Z,42.93
2019-04-01T19:24:43.908Z,42.08
2019-04-01T19:27:12.635Z,40.98
2019-04-01T19:29:42.883Z,40.92
2019-04-01T19:32:14.623Z,42.98
2019-04-01T19:34:41.901Z,41.08
2019-04-01T19:37:10.374Z,40.80
2019-04-01T19:39:39.077Z,41.37
2019-04-01T19:42:07.513Z,44.00
2019-04-01T19:44:35.984Z,41.58
2019-04-01T19:47:04.428Z,45.03
2019-04-01T19:49:33.142Z,40.15
2019-04-01T19:52:02.281Z,42.73
2019-04-01T19:54:32.796Z,41.92
2019-04-01T19:57:01.189Z,44.27
2019-04-01T19:59:29.729Z,41.65
2019-04-01T20:01:58.349Z,41.68
2019-04-01T20:04:27.198Z,41.88
2019-04-01T20:06:55.666Z,40.23
2019-04-01T20:09:24.379Z,42.48
2019-04-01T20:11:52.850Z,40.75
2019-04-01T20:14:21.557Z,43.87
2019-04-01T20:16:50.023Z,42.03
2019-04-01T20:19:18.469Z,42.53
2019-04-01T20:21:47.544Z,40.92
2019-04-01T20:24:16.370Z,45.80
2019-04-01T20:26:45.094Z,40.60
2019-04-01T20:29:13.543Z,42.33
2019-04-01T20:31:42.038Z,43.25
2019-04-01T20:34:19.470Z,45.40
2019-04-01T20:36:40.650Z,41.15
2019-04-01T20:39:09.110Z,44.60
2019-04-01T20:41:37.622Z,40.65
2019-04-01T20:44:06.144Z,46.50
2019-04-01T20:46:34.603Z,42.85
2019-04-01T20:49:03.075Z,41.75
2019-04-01T20:51:31.516Z,45.38
2019-04-01T20:53:59.982Z,45.43
2019-04-01T20:56:28.427Z,41.37
2019-04-01T20:58:56.880Z,45.75
2019-04-01T21:01:25.400Z,48.60
2019-04-01T21:03:53.881Z,43.48
2019-04-01T21:06:22.404Z,42.38
2019-04-01T21:08:50.868Z,43.70
2019-04-01T21:11:19.329Z,45.17
2019-04-01T21:13:47.778Z,45.23
2019-04-01T21:16:16.242Z,42.30
2019-04-01T21:18:44.690Z,43.92
2019-04-01T21:21:13.402Z,45.43
2019-04-01T21:23:41.860Z,46.10
2019-04-01T21:26:10.322Z,44.10
2019-04-01T21:28:38.770Z,44.90
2019-04-01T21:31:07.490Z,44.27
2019-04-01T21:33:35.945Z,41.25
2019-04-01T21:36:06.067Z,47.35
2019-04-01T21:38:35.336Z,48.68
2019-04-01T21:41:03.878Z,54.95
2019-04-01T21:43:32.323Z,48.30
2019-04-01T21:46:01.025Z,50.38
2019-04-01T21:48:29.480Z,51.55
2019-04-01T21:50:57.934Z,47.25
2019-04-01T21:53:26.408Z,49.20
2019-04-01T21:55:54.839Z,48.73
2019-04-01T21:58:23.556Z,50.30
2019-04-01T22:00:57.070Z,49.50
2019-04-01T22:03:25.525Z,51.08
2019-04-01T22:05:53.960Z,49.53
2019-04-01T22:08:22.518Z,48.78
2019-04-01T22:10:50.955Z,50.85
2019-04-01T22:13:19.657Z,51.68
2019-04-01T22:15:50.060Z,52.85
2019-04-01T22:18:18.549Z,53.60
2019-04-01T22:20:47.007Z,55.80
2019-04-01T22:23:15.464Z,56.18
2019-04-01T22:25:43.921Z,54.55
2019-04-01T22:28:12.371Z,56.53
2019-04-01T22:30:41.091Z,55.15
2019-04-01T22:33:11.119Z,58.85
2019-04-01T22:35:41.519Z,57.73
2019-04-01T22:38:10.030Z,55.65
2019-04-01T22:40:38.470Z,55.00
2019-04-01T22:43:06.931Z,56.42
2019-04-01T22:45:35.635Z,49.98
2019-04-01T22:48:04.378Z,56.08
2019-04-01T22:50:32.822Z,60.35
2019-04-01T22:53:01.541Z,52.17
2019-04-01T22:55:29.989Z,57.75
2019-04-01T22:57:58.721Z,56.13
2019-04-01T23:00:27.409Z,59.00
2019-04-01T23:02:56.155Z,56.95
2019-04-01T23:05:24.858Z,59.05
2019-04-01T23:07:53.562Z,57.98
2019-04-01T23:10:22.021Z,59.85
2019-04-01T23:12:51.169Z,58.92
2019-04-01T23:15:20.747Z,58.42
2019-04-01T23:17:49.530Z,58.63
2019-04-01T23:37:42.478Z,67.60
2019-04-01T23:40:11.062Z,61.55
2019-04-01T23:42:39.517Z,61.73
2019-04-01T23:45:08.286Z,58.13
2019-04-01T23:47:36.746Z,57.00
2019-04-01T23:50:09.133Z,53.05
2019-04-01T23:52:39.066Z,57.58
2019-04-01T23:55:08.017Z,58.33
2019-04-01T23:57:36.722Z,53.15
